sensor_id;sensor_type;location;lat;lon;timestamp;P1;durP1;ratioP1;P2;durP2;ratioP2
72235;SDS011;60146;52.498;13.462;2022-10-31T00:01:19;45.03;;;22.63;;
72235;SDS011;60146;52.498;13.462;2022-10-31T00:03:45;41.17;;;20.77;;
72235;SDS011;60146;52.498;13.462;2022-10-31T00:06:10;43.57;;;22.03;;
72235;SDS011;60146;52.498;13.462;2022-10-31T00:08:35;44.27;;;20.60;;
72235;SDS011;60146;52.498;13.462;2022-10-31T00:11:01;46.90;;;22.37;;
72235;SDS011;60146;52.498;13.462;2022-10-31T00:13:26;43.13;;;21.33;;
72235;SDS011;60146;52.498;13.462;2022-10-31T00:15:51;44.83;;;20.23;;
72235;SDS011;60146;52.498;13.462;2022-10-31T00:18:16;42.40;;;20.43;;
72235;SDS011;60146;52.498;13.462;2022-10-31T00:20:41;40.17;;;20.07;;
72235;SDS011;60146;52.498;13.462;2022-10-31T00:23:07;38.73;;;19.13;;
72235;SDS011;60146;52.498;13.462;2022-10-31T00:25:33;42.60;;;19.37;;
72235;SDS011;60146;52.498;13.462;2022-10-31T00:27:59;37.30;;;18.13;;
72235;SDS011;60146;52.498;13.462;2022-10-31T00:30:24;45.00;;;21.07;;
72235;SDS011;60146;52.498;13.462;2022-10-31T00:32:49;40.57;;;19.70;;
72235;SDS011;60146;52.498;13.462;2022-10-31T00:35:14;39.60;;;20.07;;
72235;SDS011;60146;52.498;13.462;2022-10-31T00:37:40;38.73;;;20.40;;
72235;SDS011;60146;52.498;13.462;2022-10-31T00:40:05;46.00;;;20.53;;
72235;SDS011;60146;52.498;13.462;2022-10-31T00:42:30;41.90;;;20.30;;
72235;SDS011;60146;52.498;13.462;2022-10-31T00:44:55;36.67;;;19.13;;
72235;SDS011;60146;52.498;13.462;2022-10-31T00:47:21;38.70;;;20.87;;
72235;SDS011;60146;52.498;13.462;2022-10-31T00:49:46;40.33;;;21.43;;
72235;SDS011;60146;52.498;13.462;2022-10-31T00:52:11;38.60;;;19.83;;
72235;SDS011;60146;52.498;13.462;2022-10-31T00:54:36;43.60;;;21.40;;
72235;SDS011;60146;52.498;13.462;2022-10-31T00:57:02;43.40;;;21.03;;
72235;SDS011;60146;52.498;13.462;2022-10-31T00:59:27;44.50;;;21.10;;
72235;SDS011;60146;52.498;13.462;2022-10-31T01:01:52;42.47;;;19.67;;
72235;SDS011;60146;52.498;13.462;2022-10-31T01:04:18;39.97;;;19.93;;
72235;SDS011;60146;52.498;13.462;2022-10-31T01:06:43;44.27;;;19.33;;
72235;SDS011;60146;52.498;13.462;2022-10-31T01:09:08;38.23;;;19.53;;
72235;SDS011;60146;52.498;13.462;2022-10-31T01:11:33;37.72;;;18.00;;
72235;SDS011;60146;52.498;13.462;2022-10-31T01:13:58;40.73;;;19.27;;
72235;SDS011;60146;52.498;13.462;2022-10-31T01:16:26;41.43;;;19.50;;
72235;SDS011;60146;52.498;13.462;2022-10-31T01:18:51;40.03;;;19.53;;
72235;SDS011;60146;52.498;13.462;2022-10-31T01:21:18;41.70;;;18.40;;
72235;SDS011;60146;52.498;13.462;2022-10-31T01:23:44;35.27;;;17.53;;
72235;SDS011;60146;52.498;13.462;2022-10-31T01:26:10;39.03;;;18.43;;
72235;SDS011;60146;52.498;13.462;2022-10-31T01:28:36;35.80;;;18.23;;
72235;SDS011;60146;52.498;13.462;2022-10-31T01:31:03;37.70;;;17.60;;
72235;SDS011;60146;52.498;13.462;2022-10-31T01:33:29;39.00;;;18.00;;
72235;SDS011;60146;52.498;13.462;2022-10-31T01:35:54;39.63;;;16.57;;
72235;SDS011;60146;52.498;13.462;2022-10-31T01:38:19;33.47;;;16.87;;
72235;SDS011;60146;52.498;13.462;2022-10-31T01:40:44;35.50;;;16.23;;
72235;SDS011;60146;52.498;13.462;2022-10-31T01:43:13;36.63;;;16.40;;
72235;SDS011;60146;52.498;13.462;2022-10-31T01:45:38;32.50;;;16.57;;
72235;SDS011;60146;52.498;13.462;2022-10-31T01:48:03;34.33;;;15.77;;
72235;SDS011;60146;52.498;13.462;2022-10-31T01:50:32;31.10;;;15.13;;
72235;SDS011;60146;52.498;13.462;2022-10-31T01:52:59;29.20;;;13.43;;
72235;SDS011;60146;52.498;13.462;2022-10-31T01:55:34;29.40;;;13.13;;
72235;SDS011;60146;52.498;13.462;2022-10-31T01:58:08;27.73;;;13.33;;
72235;SDS011;60146;52.498;13.462;2022-10-31T02:00:34;31.70;;;13.60;;
72235;SDS011;60146;52.498;13.462;2022-10-31T02:02:59;29.20;;;14.10;;
72235;SDS011;60146;52.498;13.462;2022-10-31T02:05:25;29.30;;;14.63;;
72235;SDS011;60146;52.498;13.462;2022-10-31T02:07:54;31.50;;;14.60;;
72235;SDS011;60146;52.498;13.462;2022-10-31T02:10:21;28.50;;;13.53;;
72235;SDS011;60146;52.498;13.462;2022-10-31T02:12:46;28.37;;;13.53;;
72235;SDS011;60146;52.498;13.462;2022-10-31T02:15:12;28.17;;;12.63;;
72235;SDS011;60146;52.498;13.462;2022-10-31T02:17:37;27.37;;;12.87;;
72235;SDS011;60146;52.498;13.462;2022-10-31T02:20:05;23.50;;;13.17;;
72235;SDS011;60146;52.498;13.462;2022-10-31T02:22:49;28.20;;;12.97;;
72235;SDS011;60146;52.498;13.462;2022-10-31T02:30:24;27.80;;;12.30;;
72235;SDS011;60146;52.498;13.462;2022-10-31T02:35:37;24.57;;;12.30;;
72235;SDS011;60146;52.498;13.462;2022-10-31T02:40:39;29.30;;;13.00;;
72235;SDS011;60146;52.498;13.462;2022-10-31T02:43:12;26.85;;;11.00;;
72235;SDS011;60146;52.498;13.462;2022-10-31T02:45:44;28.60;;;11.73;;
72235;SDS011;60146;52.498;13.462;2022-10-31T02:48:14;25.83;;;11.57;;
72235;SDS011;60146;52.498;13.462;2022-10-31T02:50:43;22.63;;;12.77;;
72235;SDS011;60146;52.498;13.462;2022-10-31T02:53:13;26.90;;;11.97;;
72235;SDS011;60146;52.498;13.462;2022-10-31T02:55:42;23.97;;;12.23;;
72235;SDS011;60146;52.498;13.462;2022-10-31T02:58:10;26.27;;;11.53;;
72235;SDS011;60146;52.498;13.462;2022-10-31T03:06:12;26.97;;;12.33;;
72235;SDS011;60146;52.498;13.462;2022-10-31T03:08:50;28.92;;;12.70;;
72235;SDS011;60146;52.498;13.462;2022-10-31T03:11:17;25.13;;;11.70;;
72235;SDS011;60146;52.498;13.462;2022-10-31T03:16:14;26.98;;;11.90;;
72235;SDS011;60146;52.498;13.462;2022-10-31T03:18:43;26.95;;;11.70;;
72235;SDS011;60146;52.498;13.462;2022-10-31T03:21:13;18.03;;;10.33;;
72235;SDS011;60146;52.498;13.462;2022-10-31T03:23:39;24.77;;;10.82;;
72235;SDS011;60146;52.498;13.462;2022-10-31T03:26:05;24.07;;;10.67;;
72235;SDS011;60146;52.498;13.462;2022-10-31T03:28:34;26.80;;;11.87;;
72235;SDS011;60146;52.498;13.462;2022-10-31T03:31:01;25.65;;;11.98;;
72235;SDS011;60146;52.498;13.462;2022-10-31T03:33:28;28.67;;;10.97;;
72235;SDS011;60146;52.498;13.462;2022-10-31T03:35:55;25.67;;;11.63;;
72235;SDS011;60146;52.498;13.462;2022-10-31T03:38:21;24.00;;;11.27;;
72235;SDS011;60146;52.498;13.462;2022-10-31T03:40:46;22.87;;;11.30;;
72235;SDS011;60146;52.498;13.462;2022-10-31T03:43:17;27.20;;;11.27;;
72235;SDS011;60146;52.498;13.462;2022-10-31T03:45:44;26.95;;;11.60;;
72235;SDS011;60146;52.498;13.462;2022-10-31T03:48:10;23.47;;;11.27;;
72235;SDS011;60146;52.498;13.462;2022-10-31T03:50:45;23.57;;;11.23;;
72235;SDS011;60146;52.498;13.462;2022-10-31T03:53:16;19.70;;;10.83;;
72235;SDS011;60146;52.498;13.462;2022-10-31T03:55:49;20.90;;;10.40;;
72235;SDS011;60146;52.498;13.462;2022-10-31T03:58:21;25.70;;;10.50;;
72235;SDS011;60146;52.498;13.462;2022-10-31T04:00:46;20.80;;;10.07;;
72235;SDS011;60146;52.498;13.462;2022-10-31T04:03:22;23.87;;;9.83;;
72235;SDS011;60146;52.498;13.462;2022-10-31T04:05:49;25.37;;;10.90;;
72235;SDS011;60146;52.498;13.462;2022-10-31T04:08:18;23.03;;;10.10;;
72235;SDS011;60146;52.498;13.462;2022-10-31T04:10:45;22.03;;;10.07;;
72235;SDS011;60146;52.498;13.462;2022-10-31T04:13:12;23.73;;;10.83;;
72235;SDS011;60146;52.498;13.462;2022-10-31T04:15:39;23.77;;;10.40;;
72235;SDS011;60146;52.498;13.462;2022-10-31T04:18:06;21.93;;;10.37;;
72235;SDS011;60146;52.498;13.462;2022-10-31T04:20:35;23.80;;;10.40;;
72235;SDS011;60146;52.498;13.462;2022-10-31T04:23:01;19.80;;;9.75;;
72235;SDS011;60146;52.498;13.462;2022-10-31T04:25:27;20.83;;;10.03;;
72235;SDS011;60146;52.498;13.462;2022-10-31T04:27:52;21.20;;;8.93;;
72235;SDS011;60146;52.498;13.462;2022-10-31T04:30:17;23.13;;;10.17;;
72235;SDS011;60146;52.498;13.462;2022-10-31T04:32:42;20.83;;;9.60;;
72235;SDS011;60146;52.498;13.462;2022-10-31T04:35:07;21.70;;;9.60;;
72235;SDS011;60146;52.498;13.462;2022-10-31T04:37:33;19.90;;;8.90;;
72235;SDS011;60146;52.498;13.462;2022-10-31T04:39:58;23.27;;;9.67;;
72235;SDS011;60146;52.498;13.462;2022-10-31T04:42:23;23.27;;;10.07;;
72235;SDS011;60146;52.498;13.462;2022-10-31T04:44:48;21.87;;;9.97;;
72235;SDS011;60146;52.498;13.462;2022-10-31T04:47:13;18.87;;;9.20;;
72235;SDS011;60146;52.498;13.462;2022-10-31T04:49:38;24.38;;;9.20;;
72235;SDS011;60146;52.498;13.462;2022-10-31T04:52:04;23.37;;;8.80;;
72235;SDS011;60146;52.498;13.462;2022-10-31T04:54:29;22.53;;;9.73;;
72235;SDS011;60146;52.498;13.462;2022-10-31T04:56:57;19.90;;;9.53;;
72235;SDS011;60146;52.498;13.462;2022-10-31T04:59:22;20.87;;;9.90;;
72235;SDS011;60146;52.498;13.462;2022-10-31T05:01:47;19.90;;;9.48;;
72235;SDS011;60146;52.498;13.462;2022-10-31T05:04:12;18.30;;;9.02;;
72235;SDS011;60146;52.498;13.462;2022-10-31T05:06:37;19.35;;;9.10;;
72235;SDS011;60146;52.498;13.462;2022-10-31T05:09:03;27.57;;;10.00;;
72235;SDS011;60146;52.498;13.462;2022-10-31T05:11:28;21.73;;;9.67;;
72235;SDS011;60146;52.498;13.462;2022-10-31T05:13:53;19.80;;;9.30;;
72235;SDS011;60146;52.498;13.462;2022-10-31T05:16:18;19.90;;;9.50;;
72235;SDS011;60146;52.498;13.462;2022-10-31T05:18:43;25.07;;;9.57;;
72235;SDS011;60146;52.498;13.462;2022-10-31T05:21:08;23.20;;;9.60;;
72235;SDS011;60146;52.498;13.462;2022-10-31T05:23:34;24.33;;;9.93;;
72235;SDS011;60146;52.498;13.462;2022-10-31T05:25:59;26.30;;;9.90;;
72235;SDS011;60146;52.498;13.462;2022-10-31T05:28:24;25.67;;;9.15;;
72235;SDS011;60146;52.498;13.462;2022-10-31T05:30:49;21.87;;;9.83;;
72235;SDS011;60146;52.498;13.462;2022-10-31T05:33:14;20.53;;;9.80;;
72235;SDS011;60146;52.498;13.462;2022-10-31T05:35:39;21.10;;;9.17;;
72235;SDS011;60146;52.498;13.462;2022-10-31T05:38:05;25.13;;;9.90;;
72235;SDS011;60146;52.498;13.462;2022-10-31T05:40:30;20.67;;;9.13;;
72235;SDS011;60146;52.498;13.462;2022-10-31T05:42:55;22.80;;;10.07;;
72235;SDS011;60146;52.498;13.462;2022-10-31T05:45:21;20.37;;;9.40;;
72235;SDS011;60146;52.498;13.462;2022-10-31T05:47:54;23.67;;;9.03;;
72235;SDS011;60146;52.498;13.462;2022-10-31T05:50:20;25.80;;;9.30;;
72235;SDS011;60146;52.498;13.462;2022-10-31T05:52:45;21.00;;;9.93;;
72235;SDS011;60146;52.498;13.462;2022-10-31T05:55:10;21.30;;;9.20;;
72235;SDS011;60146;52.498;13.462;2022-10-31T05:57:35;22.87;;;9.17;;
72235;SDS011;60146;52.498;13.462;2022-10-31T06:00:00;18.85;;;9.15;;
72235;SDS011;60146;52.498;13.462;2022-10-31T06:02:26;27.97;;;9.80;;
72235;SDS011;60146;52.498;13.462;2022-10-31T06:04:51;18.43;;;8.77;;
72235;SDS011;60146;52.498;13.462;2022-10-31T06:07:16;21.93;;;9.17;;
72235;SDS011;60146;52.498;13.462;2022-10-31T06:09:42;20.27;;;9.32;;
72235;SDS011;60146;52.498;13.462;2022-10-31T06:12:07;20.63;;;9.87;;
72235;SDS011;60146;52.498;13.462;2022-10-31T06:14:32;24.37;;;9.43;;
72235;SDS011;60146;52.498;13.462;2022-10-31T06:16:57;23.97;;;9.87;;
72235;SDS011;60146;52.498;13.462;2022-10-31T06:19:22;26.43;;;10.33;;
72235;SDS011;60146;52.498;13.462;2022-10-31T06:21:47;25.63;;;10.33;;
72235;SDS011;60146;52.498;13.462;2022-10-31T06:24:13;25.57;;;10.60;;
72235;SDS011;60146;52.498;13.462;2022-10-31T06:26:39;26.10;;;9.77;;
72235;SDS011;60146;52.498;13.462;2022-10-31T06:29:04;21.73;;;9.98;;
72235;SDS011;60146;52.498;13.462;2022-10-31T06:31:30;24.80;;;9.88;;
72235;SDS011;60146;52.498;13.462;2022-10-31T06:33:57;27.67;;;10.60;;
72235;SDS011;60146;52.498;13.462;2022-10-31T06:36:25;20.57;;;9.03;;
72235;SDS011;60146;52.498;13.462;2022-10-31T06:41:24;22.40;;;9.73;;
72235;SDS011;60146;52.498;13.462;2022-10-31T06:43:49;25.87;;;9.40;;
72235;SDS011;60146;52.498;13.462;2022-10-31T06:46:14;26.17;;;8.97;;
72235;SDS011;60146;52.498;13.462;2022-10-31T06:48:40;30.67;;;9.48;;
72235;SDS011;60146;52.498;13.462;2022-10-31T06:51:05;24.37;;;10.30;;
72235;SDS011;60146;52.498;13.462;2022-10-31T06:53:30;21.00;;;10.13;;
72235;SDS011;60146;52.498;13.462;2022-10-31T06:55:56;21.50;;;9.60;;
72235;SDS011;60146;52.498;13.462;2022-10-31T06:58:21;23.27;;;8.97;;
72235;SDS011;60146;52.498;13.462;2022-10-31T07:00:46;21.90;;;9.23;;
72235;SDS011;60146;52.498;13.462;2022-10-31T07:03:12;24.87;;;9.77;;
72235;SDS011;60146;52.498;13.462;2022-10-31T07:05:37;26.60;;;9.40;;
72235;SDS011;60146;52.498;13.462;2022-10-31T07:08:04;22.00;;;9.33;;
72235;SDS011;60146;52.498;13.462;2022-10-31T07:10:30;27.63;;;9.80;;
72235;SDS011;60146;52.498;13.462;2022-10-31T07:12:59;25.60;;;9.93;;
72235;SDS011;60146;52.498;13.462;2022-10-31T07:15:25;27.13;;;9.47;;
72235;SDS011;60146;52.498;13.462;2022-10-31T07:17:50;24.17;;;9.10;;
72235;SDS011;60146;52.498;13.462;2022-10-31T07:20:16;24.57;;;8.30;;
72235;SDS011;60146;52.498;13.462;2022-10-31T07:22:41;19.97;;;9.27;;
72235;SDS011;60146;52.498;13.462;2022-10-31T07:25:06;24.17;;;8.47;;
72235;SDS011;60146;52.498;13.462;2022-10-31T07:27:35;20.77;;;8.47;;
72235;SDS011;60146;52.498;13.462;2022-10-31T07:30:01;18.13;;;7.53;;
72235;SDS011;60146;52.498;13.462;2022-10-31T07:32:26;18.50;;;7.83;;
72235;SDS011;60146;52.498;13.462;2022-10-31T07:34:51;19.53;;;7.83;;
72235;SDS011;60146;52.498;13.462;2022-10-31T07:37:16;18.36;;;7.24;;
72235;SDS011;60146;52.498;13.462;2022-10-31T07:39:41;27.33;;;7.87;;
72235;SDS011;60146;52.498;13.462;2022-10-31T07:42:06;21.22;;;7.94;;
72235;SDS011;60146;52.498;13.462;2022-10-31T07:44:31;15.38;;;7.52;;
72235;SDS011;60146;52.498;13.462;2022-10-31T07:46:57;19.52;;;8.38;;
72235;SDS011;60146;52.498;13.462;2022-10-31T07:49:22;29.90;;;8.85;;
72235;SDS011;60146;52.498;13.462;2022-10-31T07:51:49;21.40;;;7.90;;
72235;SDS011;60146;52.498;13.462;2022-10-31T07:54:33;15.07;;;7.78;;
72235;SDS011;60146;52.498;13.462;2022-10-31T07:57:30;22.10;;;8.40;;
72235;SDS011;60146;52.498;13.462;2022-10-31T08:00:08;20.67;;;8.23;;
72235;SDS011;60146;52.498;13.462;2022-10-31T08:02:33;19.92;;;7.88;;
72235;SDS011;60146;52.498;13.462;2022-10-31T08:05:00;18.58;;;8.35;;
72235;SDS011;60146;52.498;13.462;2022-10-31T08:07:26;19.08;;;8.40;;
72235;SDS011;60146;52.498;13.462;2022-10-31T08:09:52;26.77;;;8.68;;
72235;SDS011;60146;52.498;13.462;2022-10-31T08:12:17;23.02;;;8.07;;
72235;SDS011;60146;52.498;13.462;2022-10-31T08:14:42;17.52;;;8.18;;
72235;SDS011;60146;52.498;13.462;2022-10-31T08:17:07;22.75;;;9.25;;
72235;SDS011;60146;52.498;13.462;2022-10-31T08:19:33;25.98;;;10.20;;
72235;SDS011;60146;52.498;13.462;2022-10-31T08:21:58;19.20;;;9.25;;
72235;SDS011;60146;52.498;13.462;2022-10-31T08:24:23;24.42;;;10.57;;
72235;SDS011;60146;52.498;13.462;2022-10-31T08:26:48;21.88;;;11.32;;
72235;SDS011;60146;52.498;13.462;2022-10-31T08:29:14;23.20;;;11.50;;
72235;SDS011;60146;52.498;13.462;2022-10-31T08:31:39;27.55;;;11.30;;
72235;SDS011;60146;52.498;13.462;2022-10-31T08:34:04;24.35;;;11.88;;
72235;SDS011;60146;52.498;13.462;2022-10-31T08:36:30;28.40;;;11.92;;
72235;SDS011;60146;52.498;13.462;2022-10-31T08:38:55;25.73;;;12.45;;
72235;SDS011;60146;52.498;13.462;2022-10-31T08:41:20;25.75;;;12.18;;
72235;SDS011;60146;52.498;13.462;2022-10-31T08:43:45;28.83;;;12.73;;
72235;SDS011;60146;52.498;13.462;2022-10-31T08:46:11;41.55;;;12.98;;
72235;SDS011;60146;52.498;13.462;2022-10-31T08:48:36;40.84;;;12.32;;
72235;SDS011;60146;52.498;13.462;2022-10-31T08:51:01;34.50;;;13.30;;
72235;SDS011;60146;52.498;13.462;2022-10-31T08:53:26;31.98;;;11.20;;
72235;SDS011;60146;52.498;13.462;2022-10-31T08:55:54;35.60;;;11.90;;
72235;SDS011;60146;52.498;13.462;2022-10-31T08:58:19;27.83;;;11.35;;
72235;SDS011;60146;52.498;13.462;2022-10-31T09:00:45;30.70;;;12.15;;
72235;SDS011;60146;52.498;13.462;2022-10-31T09:03:11;31.45;;;12.77;;
72235;SDS011;60146;52.498;13.462;2022-10-31T09:05:37;27.25;;;12.27;;
72235;SDS011;60146;52.498;13.462;2022-10-31T09:08:03;23.25;;;11.32;;
72235;SDS011;60146;52.498;13.462;2022-10-31T09:10:29;27.27;;;12.45;;
72235;SDS011;60146;52.498;13.462;2022-10-31T09:12:58;25.55;;;12.30;;
72235;SDS011;60146;52.498;13.462;2022-10-31T09:15:24;21.70;;;11.88;;
72235;SDS011;60146;52.498;13.462;2022-10-31T09:17:49;26.92;;;12.38;;
72235;SDS011;60146;52.498;13.462;2022-10-31T09:20:15;28.38;;;11.45;;
72235;SDS011;60146;52.498;13.462;2022-10-31T09:22:40;24.08;;;11.70;;
72235;SDS011;60146;52.498;13.462;2022-10-31T09:25:05;30.48;;;11.43;;
72235;SDS011;60146;52.498;13.462;2022-10-31T09:27:31;27.52;;;11.30;;
72235;SDS011;60146;52.498;13.462;2022-10-31T09:29:56;23.27;;;10.35;;
72235;SDS011;60146;52.498;13.462;2022-10-31T09:32:21;23.70;;;11.00;;
72235;SDS011;60146;52.498;13.462;2022-10-31T09:34:46;37.38;;;11.55;;
72235;SDS011;60146;52.498;13.462;2022-10-31T09:37:11;25.98;;;11.52;;
72235;SDS011;60146;52.498;13.462;2022-10-31T09:39:36;23.50;;;11.10;;
72235;SDS011;60146;52.498;13.462;2022-10-31T09:42:09;25.65;;;12.38;;
72235;SDS011;60146;52.498;13.462;2022-10-31T09:44:50;26.73;;;11.75;;
72235;SDS011;60146;52.498;13.462;2022-10-31T09:50:14;25.38;;;12.38;;
72235;SDS011;60146;52.498;13.462;2022-10-31T09:52:41;34.05;;;13.13;;
72235;SDS011;60146;52.498;13.462;2022-10-31T09:55:12;27.65;;;12.13;;
72235;SDS011;60146;52.498;13.462;2022-10-31T09:57:39;23.08;;;12.50;;
72235;SDS011;60146;52.498;13.462;2022-10-31T10:00:06;27.33;;;12.25;;
72235;SDS011;60146;52.498;13.462;2022-10-31T10:05:04;33.70;;;13.25;;
72235;SDS011;60146;52.498;13.462;2022-10-31T10:09:59;34.72;;;14.00;;
72235;SDS011;60146;52.498;13.462;2022-10-31T10:15:04;29.08;;;13.05;;
72235;SDS011;60146;52.498;13.462;2022-10-31T10:20:16;26.85;;;11.60;;
72235;SDS011;60146;52.498;13.462;2022-10-31T10:22:48;23.98;;;10.68;;
72235;SDS011;60146;52.498;13.462;2022-10-31T10:25:23;24.20;;;11.93;;
72235;SDS011;60146;52.498;13.462;2022-10-31T10:30:39;22.83;;;11.25;;
72235;SDS011;60146;52.498;13.462;2022-10-31T10:40:49;29.25;;;11.02;;
72235;SDS011;60146;52.498;13.462;2022-10-31T10:46:32;27.00;;;11.30;;
72235;SDS011;60146;52.498;13.462;2022-10-31T10:51:55;23.52;;;11.18;;
72235;SDS011;60146;52.498;13.462;2022-10-31T10:59:25;22.60;;;10.23;;
72235;SDS011;60146;52.498;13.462;2022-10-31T11:01:51;22.80;;;11.07;;
72235;SDS011;60146;52.498;13.462;2022-10-31T11:04:25;23.00;;;11.52;;
72235;SDS011;60146;52.498;13.462;2022-10-31T11:06:58;23.20;;;10.73;;
72235;SDS011;60146;52.498;13.462;2022-10-31T11:09:23;25.20;;;12.18;;
72235;SDS011;60146;52.498;13.462;2022-10-31T11:11:48;22.48;;;11.35;;
72235;SDS011;60146;52.498;13.462;2022-10-31T11:14:14;25.83;;;12.35;;
72235;SDS011;60146;52.498;13.462;2022-10-31T11:16:42;29.52;;;12.60;;
72235;SDS011;60146;52.498;13.462;2022-10-31T11:19:17;24.75;;;12.35;;
72235;SDS011;60146;52.498;13.462;2022-10-31T11:21:44;20.80;;;10.50;;
72235;SDS011;60146;52.498;13.462;2022-10-31T11:26:35;27.33;;;12.90;;
72235;SDS011;60146;52.498;13.462;2022-10-31T11:29:02;28.55;;;14.18;;
72235;SDS011;60146;52.498;13.462;2022-10-31T11:31:28;26.60;;;13.52;;
72235;SDS011;60146;52.498;13.462;2022-10-31T11:33:58;24.15;;;12.82;;
72235;SDS011;60146;52.498;13.462;2022-10-31T11:36:25;22.38;;;12.65;;
72235;SDS011;60146;52.498;13.462;2022-10-31T11:38:50;23.70;;;11.48;;
72235;SDS011;60146;52.498;13.462;2022-10-31T11:41:29;23.85;;;11.93;;
72235;SDS011;60146;52.498;13.462;2022-10-31T11:44:03;24.17;;;12.07;;
72235;SDS011;60146;52.498;13.462;2022-10-31T11:46:36;27.17;;;12.25;;
72235;SDS011;60146;52.498;13.462;2022-10-31T11:49:03;22.17;;;11.57;;
72235;SDS011;60146;52.498;13.462;2022-10-31T11:51:29;24.55;;;11.35;;
72235;SDS011;60146;52.498;13.462;2022-10-31T11:53:56;25.95;;;11.52;;
72235;SDS011;60146;52.498;13.462;2022-10-31T11:56:22;27.23;;;10.55;;
72235;SDS011;60146;52.498;13.462;2022-10-31T11:58:57;23.17;;;11.27;;
72235;SDS011;60146;52.498;13.462;2022-10-31T12:01:28;25.85;;;12.23;;
72235;SDS011;60146;52.498;13.462;2022-10-31T12:04:07;28.45;;;12.07;;
72235;SDS011;60146;52.498;13.462;2022-10-31T12:06:37;31.42;;;11.73;;
72235;SDS011;60146;52.498;13.462;2022-10-31T12:14:16;34.42;;;13.95;;
72235;SDS011;60146;52.498;13.462;2022-10-31T12:16:47;29.70;;;13.05;;
72235;SDS011;60146;52.498;13.462;2022-10-31T12:19:30;22.30;;;11.90;;
72235;SDS011;60146;52.498;13.462;2022-10-31T12:22:12;22.67;;;11.85;;
72235;SDS011;60146;52.498;13.462;2022-10-31T12:24:51;35.30;;;13.30;;
72235;SDS011;60146;52.498;13.462;2022-10-31T12:27:37;35.33;;;13.77;;
72235;SDS011;60146;52.498;13.462;2022-10-31T12:30:13;25.80;;;12.48;;
72235;SDS011;60146;52.498;13.462;2022-10-31T12:35:13;25.98;;;13.35;;
72235;SDS011;60146;52.498;13.462;2022-10-31T12:40:26;28.30;;;14.73;;
72235;SDS011;60146;52.498;13.462;2022-10-31T12:45:45;25.30;;;12.00;;
72235;SDS011;60146;52.498;13.462;2022-10-31T12:48:25;27.50;;;13.75;;
72235;SDS011;60146;52.498;13.462;2022-10-31T12:53:32;21.80;;;11.07;;
72235;SDS011;60146;52.498;13.462;2022-10-31T12:56:21;28.80;;;14.25;;
72235;SDS011;60146;52.498;13.462;2022-10-31T12:59:01;27.13;;;12.40;;
72235;SDS011;60146;52.498;13.462;2022-10-31T13:01:30;28.42;;;13.38;;
72235;SDS011;60146;52.498;13.462;2022-10-31T13:06:27;26.73;;;12.85;;
72235;SDS011;60146;52.498;13.462;2022-10-31T13:08:55;28.10;;;12.63;;
72235;SDS011;60146;52.498;13.462;2022-10-31T13:11:44;23.33;;;12.02;;
72235;SDS011;60146;52.498;13.462;2022-10-31T13:16:41;25.65;;;12.60;;
72235;SDS011;60146;52.498;13.462;2022-10-31T13:21:38;21.92;;;10.70;;
72235;SDS011;60146;52.498;13.462;2022-10-31T13:24:08;21.20;;;10.93;;
72235;SDS011;60146;52.498;13.462;2022-10-31T13:26:41;29.17;;;12.68;;
72235;SDS011;60146;52.498;13.462;2022-10-31T13:31:51;28.17;;;12.40;;
72235;SDS011;60146;52.498;13.462;2022-10-31T13:34:27;23.75;;;12.30;;
72235;SDS011;60146;52.498;13.462;2022-10-31T13:44:47;28.38;;;12.60;;
72235;SDS011;60146;52.498;13.462;2022-10-31T13:47:28;28.67;;;14.15;;
72235;SDS011;60146;52.498;13.462;2022-10-31T13:50:18;32.55;;;16.25;;
72235;SDS011;60146;52.498;13.462;2022-10-31T13:52:44;32.92;;;14.10;;
72235;SDS011;60146;52.498;13.462;2022-10-31T13:57:54;28.00;;;12.80;;
72235;SDS011;60146;52.498;13.462;2022-10-31T14:02:45;31.20;;;13.55;;
72235;SDS011;60146;52.498;13.462;2022-10-31T14:05:29;28.65;;;13.20;;
72235;SDS011;60146;52.498;13.462;2022-10-31T14:07:56;34.00;;;12.93;;
72235;SDS011;60146;52.498;13.462;2022-10-31T14:10:38;31.20;;;13.48;;
72235;SDS011;60146;52.498;13.462;2022-10-31T14:13:14;31.80;;;13.32;;
72235;SDS011;60146;52.498;13.462;2022-10-31T14:15:51;27.40;;;12.70;;
72235;SDS011;60146;52.498;13.462;2022-10-31T14:18:21;33.90;;;14.07;;
72235;SDS011;60146;52.498;13.462;2022-10-31T14:20:47;36.20;;;14.32;;
72235;SDS011;60146;52.498;13.462;2022-10-31T14:28:33;34.00;;;14.15;;
72235;SDS011;60146;52.498;13.462;2022-10-31T14:30:59;33.53;;;14.00;;
72235;SDS011;60146;52.498;13.462;2022-10-31T14:33:25;29.23;;;14.38;;
72235;SDS011;60146;52.498;13.462;2022-10-31T14:36:00;33.38;;;13.70;;
72235;SDS011;60146;52.498;13.462;2022-10-31T14:38:43;33.65;;;14.60;;
72235;SDS011;60146;52.498;13.462;2022-10-31T14:41:21;30.85;;;13.48;;
72235;SDS011;60146;52.498;13.462;2022-10-31T14:44:15;34.17;;;13.45;;
72235;SDS011;60146;52.498;13.462;2022-10-31T14:46:38;28.13;;;12.73;;
72235;SDS011;60146;52.498;13.462;2022-10-31T14:49:16;34.80;;;12.88;;
72235;SDS011;60146;52.498;13.462;2022-10-31T14:51:43;42.78;;;14.93;;
72235;SDS011;60146;52.498;13.462;2022-10-31T14:54:14;46.35;;;15.00;;
72235;SDS011;60146;52.498;13.462;2022-10-31T14:56:45;46.15;;;16.42;;
72235;SDS011;60146;52.498;13.462;2022-10-31T14:59:14;36.00;;;14.55;;
72235;SDS011;60146;52.498;13.462;2022-10-31T15:01:40;38.90;;;16.17;;
72235;SDS011;60146;52.498;13.462;2022-10-31T15:04:14;46.78;;;15.98;;
72235;SDS011;60146;52.498;13.462;2022-10-31T15:06:42;52.33;;;18.80;;
72235;SDS011;60146;52.498;13.462;2022-10-31T15:09:24;38.25;;;14.60;;
72235;SDS011;60146;52.498;13.462;2022-10-31T15:11:49;46.78;;;17.30;;
72235;SDS011;60146;52.498;13.462;2022-10-31T15:14:30;40.18;;;16.18;;
72235;SDS011;60146;52.498;13.462;2022-10-31T15:17:01;39.13;;;15.63;;
72235;SDS011;60146;52.498;13.462;2022-10-31T15:19:28;36.03;;;15.97;;
72235;SDS011;60146;52.498;13.462;2022-10-31T15:21:54;40.03;;;15.83;;
72235;SDS011;60146;52.498;13.462;2022-10-31T15:24:20;35.63;;;16.20;;
72235;SDS011;60146;52.498;13.462;2022-10-31T15:26:48;40.43;;;16.83;;
72235;SDS011;60146;52.498;13.462;2022-10-31T15:29:14;44.47;;;17.30;;
72235;SDS011;60146;52.498;13.462;2022-10-31T15:31:56;41.57;;;17.33;;
72235;SDS011;60146;52.498;13.462;2022-10-31T15:36:49;43.20;;;17.07;;
72235;SDS011;60146;52.498;13.462;2022-10-31T15:39:15;41.40;;;16.30;;
72235;SDS011;60146;52.498;13.462;2022-10-31T15:44:21;46.93;;;18.10;;
72235;SDS011;60146;52.498;13.462;2022-10-31T15:47:01;42.33;;;17.60;;
72235;SDS011;60146;52.498;13.462;2022-10-31T15:49:37;40.37;;;17.40;;
72235;SDS011;60146;52.498;13.462;2022-10-31T15:52:04;40.90;;;17.87;;
72235;SDS011;60146;52.498;13.462;2022-10-31T15:54:30;44.23;;;18.47;;
72235;SDS011;60146;52.498;13.462;2022-10-31T15:56:56;44.90;;;18.00;;
72235;SDS011;60146;52.498;13.462;2022-10-31T15:59:22;45.47;;;18.00;;
72235;SDS011;60146;52.498;13.462;2022-10-31T16:02:01;41.57;;;17.37;;
72235;SDS011;60146;52.498;13.462;2022-10-31T16:04:26;41.10;;;17.67;;